Terminal Aerodrome Forecast
Issued by NWS

Home | Current Version | Previous Version | Text Only | Print | Product List | Glossary On
Versions: 1 2 3 4 5 6 7 8 9 10 11 12 13 14 15 16 17
000
FTUS42 KTAE 310600 AAA
TAFVLD
TAF AMD
KVLD 310649Z 3107/0106 00000KT 5SM RA BR SCT006 OVC025
      TEMPO 3107/3108 1SM +RA OVC006
     FM311000 00000KT P6SM SCT025 OVC100
     FM311600 16005KT P6SM VCTS SCT040CB
      TEMPO 3119/3123 3SM TSRA BKN030CB
     FM010000 00000KT P6SM BKN250=

USA.gov is the U.S. government's official web portal to all federal, state and local government web resources and services.